createdAt,value
2023-04-16T00:00:05.148Z,85.12
2023-04-16T00:01:12.625Z,85.58
2023-04-16T00:02:15.850Z,84.91
2023-04-16T00:03:18.010Z,85.42
2023-04-16T00:04:20.061Z,85.79
2023-04-16T00:05:22.076Z,85.67
2023-04-16T00:06:24.380Z,85.70
2023-04-16T00:07:26.603Z,86.14
2023-04-16T00:08:28.437Z,85.69
2023-04-16T00:09:30.364Z,85.57
2023-04-16T00:10:32.208Z,85.63
2023-04-16T00:11:34.044Z,85.84
2023-04-16T00:12:36.550Z,85.65
2023-04-16T00:13:38.519Z,85.79
2023-04-16T00:14:40.621Z,86.11
2023-04-16T00:15:42.517Z,85.97
2023-04-16T00:16:44.555Z,86.41
2023-04-16T00:17:47.073Z,86.83
2023-04-16T00:18:49.002Z,86.88
2023-04-16T00:19:50.996Z,87.30
2023-04-16T00:20:53.520Z,87.68
2023-04-16T00:21:55.527Z,87.81
2023-04-16T00:22:57.877Z,87.75
2023-04-16T00:23:59.743Z,87.57
2023-04-16T00:25:01.666Z,87.69
2023-04-16T00:26:03.932Z,87.81
2023-04-16T00:27:06.490Z,87.37
2023-04-16T00:28:10.044Z,87.03
2023-04-16T00:29:13.089Z,87.64
2023-04-16T00:30:15.104Z,87.61
2023-04-16T00:31:17.056Z,87.91
2023-04-16T00:32:19.126Z,88.39
2023-04-16T00:33:21.687Z,88.08
2023-04-16T00:34:23.661Z,87.84
2023-04-16T00:35:25.653Z,88.04
2023-04-16T00:36:28.688Z,87.69
2023-04-16T00:37:30.683Z,87.50
2023-04-16T00:38:32.952Z,86.63
2023-04-16T00:39:35.187Z,86.85
2023-04-16T00:40:37.246Z,87.36
2023-04-16T00:41:39.190Z,87.57
2023-04-16T00:42:41.397Z,87.00
2023-04-16T00:43:43.683Z,87.35
2023-04-16T00:44:45.516Z,87.18
2023-04-16T00:45:47.614Z,87.12
2023-04-16T00:46:49.555Z,87.46
2023-04-16T00:47:51.537Z,87.52
2023-04-16T00:48:55.494Z,87.09
2023-04-16T00:49:57.501Z,87.09
2023-04-16T00:51:01.704Z,86.60
2023-04-16T00:52:03.898Z,86.15
2023-04-16T00:53:05.859Z,86.34
2023-04-16T00:54:08.090Z,86.52
2023-04-16T00:55:13.328Z,86.63
2023-04-16T00:56:17.542Z,86.20
2023-04-16T00:57:21.122Z,86.78
2023-04-16T00:58:23.633Z,87.25
2023-04-16T00:59:26.995Z,87.33
2023-04-16T01:00:29.463Z,86.89
2023-04-16T01:01:31.390Z,86.57
2023-04-16T01:02:34.328Z,86.19
2023-04-16T01:03:43.105Z,86.77
2023-04-16T01:04:45.634Z,86.93
2023-04-16T01:05:49.426Z,86.31
2023-04-16T01:06:51.476Z,86.54
2023-04-16T01:07:53.518Z,86.77
2023-04-16T01:08:55.423Z,87.39
2023-04-16T01:09:57.787Z,87.02
2023-04-16T01:10:59.723Z,87.00
2023-04-16T01:12:02.165Z,86.75
2023-04-16T01:13:04.071Z,86.25
2023-04-16T01:14:06.041Z,86.53
2023-04-16T01:15:08.729Z,86.39
2023-04-16T01:16:12.333Z,86.70
2023-04-16T01:17:14.285Z,86.99
2023-04-16T01:18:17.416Z,86.76
2023-04-16T01:19:19.352Z,86.72
2023-04-16T01:20:21.642Z,86.73
2023-04-16T01:21:23.462Z,86.80
2023-04-16T01:22:25.308Z,87.26
2023-04-16T01:23:27.181Z,87.24
2023-04-16T01:24:29.082Z,87.55
2023-04-16T01:25:31.306Z,87.63
2023-04-16T01:26:33.323Z,87.53
2023-04-16T01:27:35.493Z,86.96
2023-04-16T01:28:37.412Z,87.62
2023-04-16T01:29:39.410Z,87.40
2023-04-16T01:30:42.364Z,87.35
2023-04-16T01:31:46.702Z,87.34
2023-04-16T01:32:48.871Z,87.49
2023-04-16T01:33:51.500Z,87.36
2023-04-16T01:34:53.385Z,87.31
2023-04-16T01:35:56.157Z,86.94
2023-04-16T01:36:58.323Z,87.50
2023-04-16T01:38:00.244Z,87.90
2023-04-16T01:39:02.176Z,87.14
2023-04-16T01:40:04.356Z,87.13
2023-04-16T01:41:06.744Z,86.81
2023-04-16T01:42:10.970Z,86.86
2023-04-16T01:43:12.908Z,87.29
2023-04-16T01:44:15.836Z,87.49
2023-04-16T01:45:17.822Z,87.15
2023-04-16T01:46:31.178Z,87.08
2023-04-16T01:47:33.151Z,87.28
2023-04-16T01:48:35.059Z,87.14
2023-04-16T01:49:37.054Z,87.39
2023-04-16T01:50:39.002Z,87.03
2023-04-16T01:51:42.056Z,87.11
2023-04-16T01:52:44.027Z,87.45
2023-04-16T01:53:45.886Z,87.19
2023-04-16T01:54:48.127Z,87.51
2023-04-16T01:55:49.969Z,87.25
2023-04-16T01:56:52.497Z,86.26
2023-04-16T01:57:54.498Z,86.13
2023-04-16T01:58:59.502Z,86.25
2023-04-16T02:00:04.366Z,86.17
2023-04-16T02:01:06.614Z,85.80
2023-04-16T02:02:14.757Z,86.16
2023-04-16T02:03:17.752Z,86.10
2023-04-16T02:04:19.767Z,86.04
2023-04-16T02:05:21.706Z,87.62
2023-04-16T02:06:23.650Z,87.45
2023-04-16T02:07:26.042Z,87.12
2023-04-16T02:08:27.984Z,86.85
2023-04-16T02:09:29.832Z,86.98
2023-04-16T02:10:32.012Z,87.26
2023-04-16T02:11:34.309Z,87.44
2023-04-16T02:12:36.501Z,86.89
2023-04-16T02:13:38.338Z,86.79
2023-04-16T02:14:40.538Z,86.73
2023-04-16T02:15:47.450Z,86.27
2023-04-16T02:16:49.884Z,86.41
2023-04-16T02:17:56.821Z,86.50
2023-04-16T02:18:59.898Z,86.40
2023-04-16T02:20:05.691Z,86.37
2023-04-16T02:21:08.472Z,87.28
2023-04-16T02:22:10.569Z,87.76
2023-04-16T02:23:15.040Z,86.72
2023-04-16T02:24:18.507Z,86.98
2023-04-16T02:25:20.847Z,86.12
2023-04-16T02:26:22.852Z,85.75
2023-04-16T02:27:25.044Z,86.34
2023-04-16T02:28:27.864Z,86.51
2023-04-16T02:29:30.312Z,87.19
2023-04-16T02:30:34.894Z,86.98
2023-04-16T02:31:38.455Z,85.79
2023-04-16T02:32:41.294Z,85.43
2023-04-16T02:33:43.701Z,86.19
2023-04-16T02:34:46.000Z,86.31
2023-04-16T02:35:48.705Z,85.95
2023-04-16T02:36:50.559Z,85.60
2023-04-16T02:37:52.472Z,84.73
2023-04-16T02:38:54.403Z,85.25
2023-04-16T02:39:57.837Z,85.26
2023-04-16T02:40:59.685Z,84.87
2023-04-16T02:42:02.568Z,85.82
2023-04-16T02:43:04.574Z,86.05
2023-04-16T02:44:06.447Z,85.95
2023-04-16T02:45:09.393Z,85.31
2023-04-16T02:46:11.374Z,85.27
2023-04-16T02:47:13.324Z,86.29
2023-04-16T02:48:15.440Z,85.67
2023-04-16T02:49:17.401Z,86.18
2023-04-16T02:50:19.689Z,86.00
2023-04-16T02:51:21.589Z,85.89
2023-04-16T02:52:23.516Z,86.02
2023-04-16T02:53:25.452Z,86.18
2023-04-16T02:54:27.336Z,86.85
2023-04-16T02:55:29.595Z,86.77
2023-04-16T02:56:31.665Z,87.17
2023-04-16T02:57:33.988Z,87.19
2023-04-16T02:58:35.916Z,87.38
2023-04-16T02:59:37.805Z,87.44
2023-04-16T03:00:40.014Z,87.29
2023-04-16T03:01:41.985Z,87.45
2023-04-16T03:02:44.471Z,87.53
2023-04-16T03:03:46.477Z,87.80
2023-04-16T03:04:48.477Z,87.36
2023-04-16T03:05:50.961Z,88.56
2023-04-16T03:06:52.817Z,88.67
2023-04-16T03:07:56.807Z,88.43
2023-04-16T03:08:58.704Z,88.51
2023-04-16T03:10:00.741Z,87.72
2023-04-16T03:11:02.929Z,87.05
2023-04-16T03:12:05.161Z,87.86
2023-04-16T03:13:07.510Z,87.43
2023-04-16T03:14:09.417Z,87.39
2023-04-16T03:15:11.581Z,87.61
2023-04-16T03:16:13.762Z,87.56
2023-04-16T03:17:15.921Z,88.18
2023-04-16T03:18:17.841Z,88.73
2023-04-16T03:19:19.801Z,88.53
2023-04-16T03:20:21.705Z,88.46
2023-04-16T03:21:23.941Z,88.08
2023-04-16T03:22:25.815Z,87.72
2023-04-16T03:23:28.462Z,88.06
2023-04-16T03:24:30.347Z,87.69
2023-04-16T03:25:32.300Z,87.66
2023-04-16T03:26:34.742Z,88.06
2023-04-16T03:27:36.650Z,87.94
2023-04-16T03:28:38.847Z,87.85
2023-04-16T03:29:41.345Z,87.10
2023-04-16T03:30:43.596Z,87.52
2023-04-16T03:31:45.819Z,87.71
2023-04-16T03:32:47.907Z,88.23
2023-04-16T03:33:50.755Z,89.05
2023-04-16T03:34:53.055Z,88.53
2023-04-16T03:35:58.714Z,87.56
2023-04-16T03:37:01.527Z,87.71
2023-04-16T03:38:03.550Z,88.22
2023-04-16T03:39:05.626Z,87.98
2023-04-16T03:40:08.338Z,87.27
2023-04-16T03:41:10.232Z,87.93
2023-04-16T03:42:12.407Z,88.12
2023-04-16T03:43:14.280Z,87.33
2023-04-16T03:44:16.291Z,88.12
2023-04-16T03:45:18.610Z,87.97
2023-04-16T03:46:21.154Z,87.58
2023-04-16T03:47:23.786Z,88.05
2023-04-16T03:48:26.769Z,87.56
2023-04-16T03:49:28.862Z,87.50
2023-04-16T03:50:31.962Z,87.68
2023-04-16T03:51:34.512Z,87.64
2023-04-16T03:52:36.726Z,87.77
2023-04-16T03:53:38.636Z,88.50
2023-04-16T03:54:40.517Z,88.80
2023-04-16T03:55:43.308Z,88.72
2023-04-16T03:56:45.568Z,88.14
2023-04-16T03:57:47.783Z,88.09
2023-04-16T03:58:50.295Z,87.74
2023-04-16T03:59:53.717Z,88.30
2023-04-16T04:00:56.268Z,88.44
2023-04-16T04:01:59.068Z,88.83
2023-04-16T04:03:01.330Z,88.63
2023-04-16T04:04:03.681Z,88.29
2023-04-16T04:05:06.219Z,88.46
2023-04-16T04:06:08.917Z,88.23
2023-04-16T04:07:11.202Z,88.93
2023-04-16T04:08:13.167Z,89.64
2023-04-16T04:09:16.396Z,89.03
2023-04-16T04:10:18.344Z,88.85
2023-04-16T04:11:20.320Z,88.77
2023-04-16T04:12:22.479Z,88.83
2023-04-16T04:13:24.384Z,88.45
2023-04-16T04:14:26.625Z,88.70
2023-04-16T04:15:28.432Z,89.17
2023-04-16T04:16:31.592Z,88.72
2023-04-16T04:17:34.204Z,88.57
2023-04-16T04:18:37.009Z,89.17
2023-04-16T04:19:47.101Z,89.50
2023-04-16T04:20:57.186Z,89.37
2023-04-16T04:21:59.344Z,88.81
2023-04-16T04:23:01.531Z,88.95
2023-04-16T04:24:03.686Z,88.66
2023-04-16T04:25:10.157Z,88.97
2023-04-16T04:26:12.136Z,89.02
2023-04-16T04:27:14.558Z,88.55
2023-04-16T04:28:17.111Z,88.04
2023-04-16T04:29:19.015Z,88.10
2023-04-16T04:30:21.152Z,87.79
2023-04-16T04:31:23.110Z,88.30
2023-04-16T04:32:25.052Z,89.46
2023-04-16T04:33:27.775Z,89.44
2023-04-16T04:34:29.768Z,89.31
2023-04-16T04:35:32.618Z,88.30
2023-04-16T04:36:34.963Z,88.38
2023-04-16T04:37:36.950Z,88.49
2023-04-16T04:38:40.609Z,88.33
2023-04-16T04:39:42.555Z,87.99
2023-04-16T04:40:44.569Z,88.49
2023-04-16T04:41:46.521Z,88.59
2023-04-16T04:42:48.490Z,88.20
2023-04-16T04:43:50.826Z,88.03
2023-04-16T04:44:52.904Z,88.76
2023-04-16T04:45:56.259Z,89.11
2023-04-16T04:46:58.145Z,89.00
2023-04-16T04:48:00.136Z,88.75
2023-04-16T04:49:02.441Z,89.41
2023-04-16T04:50:04.554Z,90.75
2023-04-16T04:51:07.163Z,88.34
2023-04-16T04:52:09.224Z,88.17
2023-04-16T04:53:11.205Z,88.09
2023-04-16T04:54:13.462Z,87.61
2023-04-16T04:55:18.062Z,87.95
2023-04-16T04:56:19.907Z,87.87
2023-04-16T04:57:21.779Z,87.88
2023-04-16T04:58:26.212Z,87.55
2023-04-16T04:59:28.715Z,86.88
2023-04-16T05:00:31.708Z,87.08
2023-04-16T05:01:34.100Z,87.29
2023-04-16T05:02:36.419Z,87.74
2023-04-16T05:03:38.524Z,87.10
2023-04-16T05:04:40.983Z,87.33
2023-04-16T05:05:42.891Z,87.33
2023-04-16T05:06:44.735Z,88.20
2023-04-16T05:07:46.581Z,87.94
2023-04-16T05:08:48.424Z,88.14
2023-04-16T05:09:50.838Z,88.54
2023-04-16T05:10:52.835Z,88.66
2023-04-16T05:11:54.795Z,88.75
2023-04-16T05:12:57.153Z,88.24
2023-04-16T05:13:59.032Z,88.13
2023-04-16T05:15:01.279Z,87.98
2023-04-16T05:16:03.232Z,87.61
2023-04-16T05:17:05.362Z,87.46
2023-04-16T05:18:07.321Z,87.39
2023-04-16T05:19:09.424Z,87.63
2023-04-16T05:20:12.302Z,87.44
2023-04-16T05:21:19.612Z,87.53
2023-04-16T05:22:28.430Z,87.33
2023-04-16T05:23:30.925Z,86.77
2023-04-16T05:24:36.199Z,86.90
2023-04-16T05:25:38.646Z,86.48
2023-04-16T05:26:40.574Z,85.85
2023-04-16T05:27:42.421Z,86.50
2023-04-16T05:28:44.296Z,86.35
2023-04-16T05:29:46.322Z,86.65
2023-04-16T05:30:48.720Z,85.30
2023-04-16T05:31:50.905Z,84.77
2023-04-16T05:32:53.203Z,84.93
2023-04-16T05:33:55.148Z,84.62
2023-04-16T05:35:00.150Z,84.73
2023-04-16T05:36:02.402Z,84.72
2023-04-16T05:37:04.259Z,84.81
2023-04-16T05:38:06.597Z,84.69
2023-04-16T05:39:08.984Z,84.71
2023-04-16T05:40:13.562Z,84.66
2023-04-16T05:41:15.951Z,84.70
2023-04-16T05:42:18.004Z,84.37
2023-04-16T05:43:20.058Z,84.16
2023-04-16T05:44:21.956Z,83.51
2023-04-16T05:45:24.490Z,82.30
2023-04-16T05:46:27.897Z,82.69
2023-04-16T05:47:30.048Z,83.40
2023-04-16T05:48:32.027Z,83.70
2023-04-16T05:49:33.963Z,83.75
2023-04-16T05:50:36.692Z,84.02
2023-04-16T05:51:38.831Z,83.85
2023-04-16T05:52:40.807Z,83.07
2023-04-16T05:53:42.828Z,82.94
2023-04-16T05:54:44.774Z,83.00
2023-04-16T05:55:47.139Z,83.62
2023-04-16T05:56:49.327Z,83.40
2023-04-16T05:57:51.182Z,83.54
2023-04-16T05:58:53.064Z,83.59
2023-04-16T05:59:54.940Z,83.97
2023-04-16T06:00:57.039Z,84.76
2023-04-16T06:01:59.333Z,83.76
2023-04-16T06:03:03.087Z,83.73
2023-04-16T06:04:05.436Z,83.70
2023-04-16T06:05:07.732Z,83.39
2023-04-16T06:06:09.688Z,83.37
2023-04-16T06:07:11.930Z,82.62
2023-04-16T06:08:13.794Z,81.90
2023-04-16T06:09:15.720Z,81.27
2023-04-16T06:10:17.684Z,81.18
2023-04-16T06:11:19.578Z,81.08
2023-04-16T06:12:21.779Z,80.72
2023-04-16T06:13:23.712Z,79.20
2023-04-16T06:14:25.760Z,79.48
2023-04-16T06:15:27.602Z,79.61
2023-04-16T06:16:29.637Z,79.62
2023-04-16T06:17:32.089Z,79.70
2023-04-16T06:18:34.093Z,79.92
2023-04-16T06:19:36.288Z,80.17
2023-04-16T06:20:38.202Z,80.34
2023-04-16T06:21:40.261Z,80.40
2023-04-16T06:22:42.467Z,79.88
2023-04-16T06:23:44.318Z,80.22
2023-04-16T06:24:46.192Z,79.70
2023-04-16T06:25:48.086Z,79.99
2023-04-16T06:26:49.990Z,79.73
2023-04-16T06:27:52.150Z,78.91
2023-04-16T06:28:54.018Z,78.32
2023-04-16T06:29:57.440Z,78.18
2023-04-16T06:31:00.564Z,77.87
2023-04-16T06:32:03.711Z,77.81
2023-04-16T06:33:05.982Z,76.65
2023-04-16T06:34:08.338Z,78.77
2023-04-16T06:35:10.226Z,76.30
2023-04-16T06:36:12.370Z,74.38
2023-04-16T06:37:14.260Z,74.58
2023-04-16T06:38:16.583Z,74.44
2023-04-16T06:39:21.715Z,75.72
2023-04-16T06:40:23.721Z,74.94
2023-04-16T06:41:26.708Z,74.25
2023-04-16T06:42:28.705Z,73.31
2023-04-16T06:43:33.486Z,74.06
2023-04-16T06:44:35.885Z,74.25
2023-04-16T06:45:37.853Z,73.00
2023-04-16T06:46:39.882Z,72.80
2023-04-16T06:47:41.838Z,72.14
2023-04-16T06:48:44.138Z,72.68
2023-04-16T06:49:45.990Z,72.68
2023-04-16T06:50:47.874Z,72.06
2023-04-16T06:51:49.989Z,71.18
2023-04-16T06:52:52.196Z,71.25
2023-04-16T06:53:54.349Z,70.71
2023-04-16T06:54:56.778Z,70.98
2023-04-16T06:55:58.644Z,70.90
2023-04-16T06:57:00.526Z,70.78
2023-04-16T06:58:02.380Z,70.17
2023-04-16T06:59:04.797Z,70.44
2023-04-16T07:00:07.242Z,70.71
2023-04-16T07:01:10.129Z,70.41
2023-04-16T07:02:12.463Z,70.14
2023-04-16T07:03:14.805Z,69.93
2023-04-16T07:04:17.183Z,70.36
2023-04-16T07:05:19.270Z,69.42
2023-04-16T07:06:21.181Z,69.19
2023-04-16T07:07:23.063Z,69.60
2023-04-16T07:08:24.973Z,69.76
2023-04-16T07:09:27.302Z,69.49
2023-04-16T07:10:29.248Z,69.77
2023-04-16T07:11:31.318Z,69.30
2023-04-16T07:12:33.462Z,68.47
2023-04-16T07:13:35.299Z,67.96
2023-04-16T07:14:37.560Z,67.75
2023-04-16T07:15:39.459Z,66.16
2023-04-16T07:16:41.622Z,66.95
2023-04-16T07:17:43.545Z,67.34
2023-04-16T07:18:45.583Z,66.38
2023-04-16T07:19:47.852Z,66.73
2023-04-16T07:20:49.749Z,67.34
2023-04-16T07:21:51.801Z,67.02
2023-04-16T07:22:53.720Z,72.30
2023-04-16T07:23:55.669Z,69.84
2023-04-16T07:24:57.796Z,63.91
2023-04-16T07:25:59.669Z,65.27
2023-04-16T07:27:01.654Z,65.54
2023-04-16T07:28:03.947Z,59.39
2023-04-16T07:29:05.964Z,59.74
2023-04-16T07:30:09.266Z,60.95
2023-04-16T07:31:11.218Z,61.53
2023-04-16T07:32:14.767Z,61.25
2023-04-16T07:33:17.503Z,61.88
2023-04-16T07:34:19.406Z,61.75
2023-04-16T07:35:21.663Z,62.34
2023-04-16T07:36:23.633Z,61.90
2023-04-16T07:37:25.530Z,61.49
2023-04-16T07:38:27.379Z,62.44
2023-04-16T07:39:29.209Z,62.76
2023-04-16T07:40:31.447Z,65.27
2023-04-16T07:41:33.459Z,63.01
2023-04-16T07:42:35.706Z,61.67
2023-04-16T07:43:37.616Z,62.49
2023-04-16T07:44:39.528Z,64.31
2023-04-16T07:45:41.777Z,63.67
2023-04-16T07:46:47.285Z,63.61
2023-04-16T07:47:49.663Z,60.57
2023-04-16T07:48:51.580Z,61.96
2023-04-16T07:49:53.819Z,59.05
2023-04-16T07:50:56.452Z,58.36
2023-04-16T07:51:58.333Z,57.83
2023-04-16T07:53:00.295Z,58.30
2023-04-16T07:54:02.252Z,58.19
2023-04-16T07:55:04.768Z,58.34
2023-04-16T07:56:07.416Z,58.25
2023-04-16T07:57:09.272Z,59.02
2023-04-16T07:58:11.256Z,58.94
2023-04-16T07:59:22.148Z,59.75
2023-04-16T08:00:26.411Z,61.47
2023-04-16T08:01:28.781Z,60.12
2023-04-16T08:02:31.274Z,59.52
2023-04-16T08:03:33.455Z,58.67
2023-04-16T08:04:35.829Z,57.70
2023-04-16T08:05:37.889Z,56.56
2023-04-16T08:06:40.481Z,55.63
2023-04-16T08:07:42.490Z,55.27
2023-04-16T08:08:44.308Z,55.15
2023-04-16T08:09:51.691Z,54.38
2023-04-16T08:10:55.951Z,52.67
2023-04-16T08:11:58.194Z,53.20
2023-04-16T08:13:03.210Z,54.08
2023-04-16T08:14:05.258Z,53.79
2023-04-16T08:15:08.076Z,54.88
2023-04-16T08:16:10.136Z,55.55
2023-04-16T08:17:15.902Z,54.75
2023-04-16T08:18:17.817Z,55.63
2023-04-16T08:19:20.056Z,56.86
2023-04-16T08:20:21.898Z,58.56
2023-04-16T08:21:23.795Z,56.75
2023-04-16T08:22:26.445Z,56.82
2023-04-16T08:23:28.402Z,56.82
2023-04-16T08:24:30.506Z,55.74
2023-04-16T08:25:32.467Z,56.30
2023-04-16T08:26:34.438Z,57.03
2023-04-16T08:27:36.666Z,56.11
2023-04-16T08:28:38.541Z,55.64
2023-04-16T08:29:40.528Z,56.30
2023-04-16T08:30:42.523Z,56.01
2023-04-16T08:31:44.553Z,54.74
2023-04-16T08:32:49.398Z,55.09
2023-04-16T08:33:52.011Z,54.88
2023-04-16T08:34:53.925Z,55.08
2023-04-16T08:35:55.873Z,55.55
2023-04-16T08:36:58.298Z,55.29
2023-04-16T08:38:02.384Z,56.13
2023-04-16T08:39:04.933Z,56.70
2023-04-16T08:40:07.864Z,60.89
2023-04-16T08:41:12.987Z,60.63
2023-04-16T08:42:31.470Z,56.90
2023-04-16T08:43:37.685Z,55.25
2023-04-16T08:44:44.176Z,55.17
2023-04-16T08:45:47.801Z,55.70
2023-04-16T08:46:54.799Z,55.82
2023-04-16T08:47:57.225Z,55.49
2023-04-16T08:49:01.085Z,55.16
2023-04-16T08:50:06.583Z,56.94
2023-04-16T08:51:10.706Z,55.62
2023-04-16T08:52:20.225Z,55.46
2023-04-16T08:53:29.116Z,55.88
2023-04-16T08:54:37.472Z,55.94
2023-04-16T08:55:43.626Z,55.52
2023-04-16T08:56:45.944Z,55.78
2023-04-16T08:57:58.258Z,56.32
2023-04-16T08:59:03.136Z,55.97
2023-04-16T09:00:07.862Z,56.42
2023-04-16T09:01:11.365Z,56.27
2023-04-16T09:02:13.739Z,55.95
2023-04-16T09:03:15.810Z,55.25
2023-04-16T09:04:19.226Z,55.63
2023-04-16T09:05:25.605Z,56.21
2023-04-16T09:06:28.287Z,56.56
2023-04-16T09:07:32.295Z,56.22
2023-04-16T09:08:36.092Z,56.73
2023-04-16T09:09:39.518Z,57.01
2023-04-16T09:10:43.107Z,55.69
2023-04-16T09:11:45.593Z,55.68
2023-04-16T09:12:47.525Z,55.98
2023-04-16T09:13:49.484Z,57.22
2023-04-16T09:14:51.905Z,57.31
2023-04-16T09:15:55.297Z,57.68
2023-04-16T09:17:01.145Z,57.68
2023-04-16T09:18:03.302Z,56.96
2023-04-16T09:19:05.382Z,57.71
2023-04-16T09:20:09.286Z,57.47
2023-04-16T09:21:11.490Z,57.63
2023-04-16T09:22:13.596Z,57.00
2023-04-16T09:23:15.603Z,56.75
2023-04-16T09:24:18.045Z,57.47
2023-04-16T09:25:22.654Z,58.09
2023-04-16T09:26:25.106Z,58.31
2023-04-16T09:27:27.492Z,58.29
2023-04-16T09:28:42.931Z,58.96
2023-04-16T09:29:44.819Z,59.00
2023-04-16T09:30:46.690Z,58.45
2023-04-16T09:32:05.487Z,58.39
2023-04-16T09:33:22.232Z,58.91
2023-04-16T09:34:24.390Z,58.41
2023-04-16T09:35:26.462Z,58.30
2023-04-16T09:36:28.688Z,58.33
2023-04-16T09:37:31.273Z,57.73
2023-04-16T09:38:48.963Z,59.06
2023-04-16T09:40:04.624Z,58.57
2023-04-16T09:41:08.313Z,58.70
2023-04-16T09:42:11.254Z,57.52
2023-04-16T09:43:18.393Z,57.18
2023-04-16T09:44:20.481Z,57.96
2023-04-16T09:45:22.328Z,58.25
2023-04-16T09:46:30.133Z,58.15
2023-04-16T09:47:46.220Z,58.83
2023-04-16T09:48:48.661Z,58.79
2023-04-16T09:49:50.920Z,58.99
2023-04-16T09:50:52.847Z,58.54
2023-04-16T09:51:56.280Z,58.75
2023-04-16T09:53:03.638Z,58.98
2023-04-16T09:54:06.714Z,57.56
2023-04-16T09:55:08.680Z,57.70
2023-04-16T09:56:12.463Z,56.05
2023-04-16T09:57:16.300Z,55.88
2023-04-16T09:58:21.188Z,56.31
2023-04-16T09:59:24.336Z,56.63
2023-04-16T10:00:26.702Z,56.33
2023-04-16T10:01:30.945Z,56.08
2023-04-16T10:02:38.898Z,56.15
2023-04-16T10:03:41.242Z,57.42
2023-04-16T10:04:51.667Z,57.62
2023-04-16T10:05:53.919Z,57.40
2023-04-16T10:07:06.256Z,57.65
2023-04-16T10:08:13.319Z,58.13
2023-04-16T10:09:15.199Z,58.39
2023-04-16T10:10:17.340Z,58.14
2023-04-16T10:11:21.030Z,58.38
2023-04-16T10:12:23.396Z,58.04
2023-04-16T10:13:27.938Z,58.95
2023-04-16T10:14:29.950Z,59.68
2023-04-16T10:15:31.991Z,59.34
2023-04-16T10:16:34.669Z,58.96
2023-04-16T10:17:37.497Z,58.34
2023-04-16T10:18:41.635Z,58.07
2023-04-16T10:19:44.397Z,58.22
2023-04-16T10:20:46.474Z,58.39
2023-04-16T10:21:48.707Z,58.76
2023-04-16T10:22:51.092Z,58.83
2023-04-16T10:23:53.338Z,57.31
2023-04-16T10:24:56.229Z,57.48
2023-04-16T10:25:59.217Z,57.36
2023-04-16T10:27:01.614Z,58.22
2023-04-16T10:28:04.124Z,58.41
2023-04-16T10:29:07.337Z,57.90
2023-04-16T10:30:10.833Z,58.07
2023-04-16T10:31:13.327Z,57.31
2023-04-16T10:32:17.357Z,56.63
2023-04-16T10:33:21.921Z,56.58
2023-04-16T10:34:25.006Z,57.23
2023-04-16T10:35:26.952Z,56.39
2023-04-16T10:36:29.142Z,56.08
2023-04-16T10:37:32.134Z,56.55
2023-04-16T10:38:35.275Z,54.96
2023-04-16T10:39:37.600Z,56.26
2023-04-16T10:40:39.671Z,55.14
2023-04-16T10:41:42.837Z,54.58
2023-04-16T10:42:57.684Z,55.16
2023-04-16T10:44:10.561Z,54.42
2023-04-16T10:45:12.458Z,54.50
2023-04-16T10:46:37.780Z,53.63
2023-04-16T10:47:40.737Z,54.11
2023-04-16T10:48:49.657Z,52.02
2023-04-16T10:49:52.707Z,52.98
2023-04-16T10:50:58.200Z,52.99
2023-04-16T10:52:20.173Z,52.02
2023-04-16T10:53:28.164Z,52.47
2023-04-16T10:54:31.187Z,52.52
2023-04-16T10:55:33.834Z,51.88
2023-04-16T10:56:37.098Z,52.60
2023-04-16T10:57:38.952Z,51.61
2023-04-16T10:58:41.352Z,51.02
2023-04-16T10:59:44.781Z,50.89
2023-04-16T11:00:51.208Z,50.37
2023-04-16T11:01:55.865Z,50.24
2023-04-16T11:02:57.951Z,47.69
2023-04-16T11:04:19.057Z,48.34
2023-04-16T11:05:24.580Z,49.61
2023-04-16T11:06:27.947Z,50.60
2023-04-16T11:07:34.742Z,51.12
2023-04-16T11:08:53.388Z,50.74
2023-04-16T11:10:13.457Z,50.58
2023-04-16T11:11:15.677Z,48.39
2023-04-16T11:12:20.260Z,48.60
2023-04-16T11:13:22.575Z,49.26
2023-04-16T11:14:24.447Z,49.00
2023-04-16T11:15:30.907Z,50.06
2023-04-16T11:16:32.932Z,48.96
2023-04-16T11:17:46.532Z,49.05
2023-04-16T11:18:51.450Z,46.39
2023-04-16T11:19:53.869Z,46.46
2023-04-16T11:20:56.222Z,46.18
2023-04-16T11:21:58.574Z,46.95
2023-04-16T11:23:00.833Z,47.90
2023-04-16T11:24:02.670Z,46.27
2023-04-16T11:25:04.888Z,45.94
2023-04-16T11:26:30.610Z,46.80
2023-04-16T11:27:32.498Z,47.03
2023-04-16T11:28:35.876Z,46.67
2023-04-16T11:29:37.752Z,46.06
2023-04-16T11:30:40.755Z,45.74
2023-04-16T11:31:42.995Z,46.58
2023-04-16T11:32:45.794Z,45.81
2023-04-16T11:33:48.091Z,45.08
2023-04-16T11:34:50.059Z,44.82
2023-04-16T11:35:59.020Z,45.87
2023-04-16T11:37:01.016Z,44.88
2023-04-16T11:38:02.972Z,45.97
2023-04-16T11:39:05.387Z,45.47
2023-04-16T11:40:09.609Z,45.52
2023-04-16T11:41:11.734Z,44.07
2023-04-16T11:42:22.956Z,44.00
2023-04-16T11:43:26.824Z,43.44
2023-04-16T11:44:29.711Z,42.68
2023-04-16T11:45:31.825Z,42.40
2023-04-16T11:46:40.758Z,42.30
2023-04-16T11:47:45.883Z,42.73
2023-04-16T11:48:52.715Z,45.85
2023-04-16T11:49:54.842Z,47.06
2023-04-16T11:50:59.625Z,47.16
2023-04-16T11:52:01.593Z,47.81
2023-04-16T11:53:05.002Z,46.96
2023-04-16T11:54:12.111Z,46.59
2023-04-16T11:55:14.610Z,45.92
2023-04-16T11:56:25.520Z,45.52
2023-04-16T11:57:28.957Z,48.10
2023-04-16T11:58:31.054Z,47.42
2023-04-16T11:59:33.420Z,45.06
2023-04-16T12:00:35.983Z,44.12
2023-04-16T12:01:41.165Z,43.88
2023-04-16T12:02:46.031Z,43.75
2023-04-16T12:03:49.736Z,43.57
2023-04-16T12:04:51.888Z,43.51
2023-04-16T12:05:54.059Z,42.74
2023-04-16T12:07:13.609Z,41.59
2023-04-16T12:08:32.628Z,39.96
2023-04-16T12:09:38.568Z,40.70
2023-04-16T12:10:55.507Z,40.43
2023-04-16T12:11:57.945Z,41.23
2023-04-16T12:13:16.372Z,41.35
2023-04-16T12:14:18.352Z,41.70
2023-04-16T12:15:20.355Z,41.15
2023-04-16T12:16:22.242Z,40.55
2023-04-16T12:17:24.516Z,40.05
2023-04-16T12:18:29.390Z,40.28
2023-04-16T12:19:31.546Z,41.06
2023-04-16T12:20:41.846Z,41.09
2023-04-16T12:21:44.738Z,39.42
2023-04-16T12:22:49.733Z,39.67
2023-04-16T12:23:53.907Z,39.85
2023-04-16T12:24:59.960Z,40.07
2023-04-16T12:26:10.792Z,39.99
2023-04-16T12:27:13.033Z,40.33
2023-04-16T12:28:16.521Z,41.19
2023-04-16T12:29:19.670Z,41.02
2023-04-16T12:30:23.445Z,41.01
2023-04-16T12:31:38.232Z,40.24
2023-04-16T12:32:41.891Z,40.23
2023-04-16T12:33:44.101Z,40.82
2023-04-16T12:34:52.301Z,40.20
2023-04-16T12:35:54.826Z,40.80
2023-04-16T12:37:12.358Z,41.32
2023-04-16T12:38:17.296Z,40.32
2023-04-16T12:39:19.594Z,39.29
2023-04-16T12:40:21.411Z,41.13
2023-04-16T12:41:23.675Z,40.47
2023-04-16T12:42:25.947Z,40.19
2023-04-16T12:43:28.498Z,40.43
2023-04-16T12:44:30.746Z,41.07
2023-04-16T12:45:32.644Z,40.62
2023-04-16T12:46:41.050Z,40.09
2023-04-16T12:47:43.127Z,40.79
2023-04-16T12:48:45.038Z,41.49
2023-04-16T12:49:47.220Z,41.40
2023-04-16T12:50:49.104Z,41.33
2023-04-16T12:51:51.017Z,40.93
2023-04-16T12:52:52.883Z,40.33
2023-04-16T12:53:55.281Z,39.64
2023-04-16T12:54:57.535Z,39.96
2023-04-16T12:55:59.586Z,40.78
2023-04-16T12:57:01.458Z,42.72
2023-04-16T12:58:03.371Z,41.70
2023-04-16T12:59:05.235Z,41.29
2023-04-16T13:00:11.064Z,40.68
2023-04-16T13:01:12.965Z,40.74
2023-04-16T13:02:15.018Z,40.78
2023-04-16T13:03:17.050Z,41.08
2023-04-16T13:04:19.200Z,39.39
2023-04-16T13:05:21.472Z,40.36
2023-04-16T13:06:23.435Z,39.48
2023-04-16T13:07:26.728Z,39.70
2023-04-16T13:08:29.136Z,39.23
2023-04-16T13:09:31.109Z,39.26
2023-04-16T13:10:33.417Z,38.92
2023-04-16T13:11:35.640Z,38.13
2023-04-16T13:12:37.638Z,40.51
2023-04-16T13:13:39.794Z,39.17
2023-04-16T13:14:43.349Z,39.03
2023-04-16T13:15:47.212Z,39.08
2023-04-16T13:16:49.089Z,37.04
2023-04-16T13:17:51.073Z,37.76
2023-04-16T13:18:52.983Z,37.64
2023-04-16T13:19:54.936Z,38.62
2023-04-16T13:20:57.350Z,38.32
2023-04-16T13:21:59.533Z,38.61
2023-04-16T13:23:01.417Z,37.76
2023-04-16T13:24:03.530Z,37.75
2023-04-16T13:25:05.960Z,36.24
2023-04-16T13:26:08.182Z,37.21
2023-04-16T13:27:10.149Z,37.12
2023-04-16T13:28:12.045Z,37.33
2023-04-16T13:29:13.917Z,37.77
2023-04-16T13:30:16.308Z,38.70
2023-04-16T13:31:20.606Z,38.75
2023-04-16T13:32:22.597Z,39.50
2023-04-16T13:33:24.629Z,39.52
2023-04-16T13:34:26.502Z,39.50